Highland Heights, Kentucky
Current Conditions -  °F | °C
As of 1:53 PM on Saturday 20 Dec 2014 (Local Time) from KLUK Reporting Station
Overcast Overcast  
Wind Chill:   Ceiling: 2100
Heat Index:   Visibility: 8mi
Dew Point: -4°   Wind: 3mph
Humidity: 72%   Direction: 60°ENE
Pressure: 30.28"   Gusts: NA
Location:  39.0316°N, 84.4619°W
Report Text: KLUK 201853Z 06003KT 8SM OVC021 01/M04 A3028 RMK AO2 SLP258 T00061039
Loading
Personal Weather Stations






























Interactive Weather Map New forecast layout! Learn more

10-Day Weather Forecast

Advertisements
Track Severe Weather on mobile